createdAt,value
2023-04-18T00:00:19.061Z,483.00
2023-04-18T00:01:19.065Z,483.00
2023-04-18T00:02:19.175Z,484.00
2023-04-18T00:03:19.277Z,481.00
2023-04-18T00:04:19.617Z,479.00
2023-04-18T00:05:19.183Z,479.00
2023-04-18T00:06:19.099Z,481.00
2023-04-18T00:07:19.131Z,481.00
2023-04-18T00:08:19.164Z,480.00
2023-04-18T00:09:19.208Z,478.00
2023-04-18T00:10:19.200Z,478.00
2023-04-18T00:11:19.145Z,477.00
2023-04-18T00:12:19.158Z,475.00
2023-04-18T00:13:19.170Z,475.00
2023-04-18T00:14:19.150Z,474.00
2023-04-18T00:15:19.163Z,474.00
2023-04-18T00:16:19.188Z,473.00
2023-04-18T00:17:19.235Z,472.00
2023-04-18T00:18:19.216Z,471.00
2023-04-18T00:19:19.174Z,471.00
2023-04-18T00:20:19.224Z,470.00
2023-04-18T00:21:19.229Z,471.00
2023-04-18T00:22:19.223Z,473.00
2023-04-18T00:23:19.255Z,474.00
2023-04-18T00:24:19.256Z,471.00
2023-04-18T00:25:19.244Z,472.00
2023-04-18T00:26:19.257Z,470.00
2023-04-18T00:27:19.296Z,470.00
2023-04-18T00:28:19.310Z,470.00
2023-04-18T00:29:19.301Z,470.00
2023-04-18T00:30:19.331Z,470.00
2023-04-18T00:31:19.379Z,471.00
2023-04-18T00:32:19.387Z,473.00
2023-04-18T00:33:19.372Z,473.00
2023-04-18T00:34:19.378Z,470.00
2023-04-18T00:35:19.387Z,469.00
2023-04-18T00:36:19.408Z,471.00
2023-04-18T00:37:19.425Z,472.00
2023-04-18T00:38:19.374Z,472.00
2023-04-18T00:39:19.391Z,473.00
2023-04-18T00:40:19.395Z,472.00
2023-04-18T00:41:19.421Z,471.00
2023-04-18T00:42:19.450Z,472.00
2023-04-18T00:43:19.438Z,471.00
2023-04-18T00:44:19.446Z,471.00
2023-04-18T00:45:19.434Z,470.00
2023-04-18T00:46:19.490Z,471.00
2023-04-18T00:47:19.503Z,469.00
2023-04-18T00:48:19.465Z,467.00
2023-04-18T00:49:19.494Z,466.00
2023-04-18T00:50:19.462Z,466.00
2023-04-18T00:51:19.506Z,467.00
2023-04-18T00:52:19.490Z,465.00
2023-04-18T00:53:19.496Z,466.00
2023-04-18T00:54:19.502Z,470.00
2023-04-18T00:55:19.523Z,469.00
2023-04-18T00:56:19.507Z,467.00
2023-04-18T00:57:19.520Z,467.00
2023-04-18T00:58:19.530Z,466.00
2023-04-18T00:59:19.593Z,467.00
2023-04-18T01:00:19.564Z,468.00
2023-04-18T01:01:19.578Z,471.00
2023-04-18T01:02:19.725Z,470.00
2023-04-18T01:03:19.660Z,470.00
2023-04-18T01:04:19.859Z,470.00
2023-04-18T01:05:19.621Z,471.00
2023-04-18T01:06:19.626Z,470.00
2023-04-18T01:07:19.633Z,471.00
2023-04-18T01:08:19.669Z,471.00
2023-04-18T01:09:19.714Z,469.00
2023-04-18T01:10:19.693Z,470.00
2023-04-18T01:11:19.716Z,469.00
2023-04-18T01:12:19.741Z,469.00
2023-04-18T01:13:19.766Z,467.00
2023-04-18T01:14:19.792Z,467.00
2023-04-18T01:15:19.794Z,467.00
2023-04-18T01:16:19.850Z,467.00
2023-04-18T01:17:19.829Z,467.00
2023-04-18T01:18:19.841Z,466.00
2023-04-18T01:19:19.863Z,468.00
2023-04-18T01:20:19.907Z,470.00
2023-04-18T01:21:19.926Z,471.00
2023-04-18T01:22:19.908Z,472.00
2023-04-18T01:23:19.902Z,470.00
2023-04-18T01:24:19.927Z,470.00
2023-04-18T01:25:19.929Z,469.00
2023-04-18T01:26:19.949Z,468.00
2023-04-18T01:27:19.987Z,468.00
2023-04-18T01:28:19.949Z,468.00
2023-04-18T01:29:19.986Z,468.00
2023-04-18T01:30:19.981Z,467.00
2023-04-18T01:31:20.055Z,466.00
2023-04-18T01:32:20.083Z,464.00
2023-04-18T01:33:20.041Z,465.00
2023-04-18T01:34:20.060Z,466.00
2023-04-18T01:35:20.081Z,467.00
2023-04-18T01:36:20.089Z,466.00
2023-04-18T01:37:20.117Z,466.00
2023-04-18T01:38:20.109Z,465.00
2023-04-18T01:39:20.123Z,462.00
2023-04-18T01:40:20.154Z,463.00
2023-04-18T01:41:20.454Z,462.00
2023-04-18T01:42:20.213Z,463.00
2023-04-18T01:43:20.174Z,464.00
2023-04-18T01:44:20.192Z,466.00
2023-04-18T01:45:20.219Z,469.00
2023-04-18T01:46:20.272Z,468.00
2023-04-18T01:47:20.656Z,467.00
2023-04-18T01:48:20.643Z,468.00
2023-04-18T01:49:20.319Z,467.00
2023-04-18T01:50:20.276Z,468.00
2023-04-18T01:51:20.283Z,468.00
2023-04-18T01:52:20.269Z,468.00
2023-04-18T01:53:20.298Z,466.00
2023-04-18T01:54:20.288Z,466.00
2023-04-18T01:55:20.281Z,466.00
2023-04-18T01:56:20.346Z,462.00
2023-04-18T01:57:20.320Z,462.00
2023-04-18T01:58:20.328Z,465.00
2023-04-18T01:59:20.357Z,467.00
2023-04-18T02:00:20.384Z,468.00
2023-04-18T02:01:20.596Z,469.00
2023-04-18T02:02:20.598Z,467.00
2023-04-18T02:03:20.604Z,467.00
2023-04-18T02:04:20.456Z,467.00
2023-04-18T02:05:20.437Z,466.00
2023-04-18T02:06:20.465Z,463.00
2023-04-18T02:07:20.474Z,465.00
2023-04-18T02:08:20.490Z,463.00
2023-04-18T02:09:20.509Z,465.00
2023-04-18T02:10:20.519Z,465.00
2023-04-18T02:11:20.525Z,467.00
2023-04-18T02:12:20.560Z,467.00
2023-04-18T02:13:20.517Z,466.00
2023-04-18T02:14:20.546Z,468.00
2023-04-18T02:15:20.546Z,465.00
2023-04-18T02:16:20.700Z,466.00
2023-04-18T02:17:20.636Z,466.00
2023-04-18T02:18:20.579Z,467.00
2023-04-18T02:19:20.569Z,466.00
2023-04-18T02:20:20.608Z,467.00
2023-04-18T02:21:20.610Z,468.00
2023-04-18T02:22:20.626Z,469.00
2023-04-18T02:23:20.575Z,469.00
2023-04-18T02:24:20.623Z,469.00
2023-04-18T02:25:20.610Z,471.00
2023-04-18T02:26:20.568Z,472.00
2023-04-18T02:27:20.591Z,473.00
2023-04-18T02:28:20.578Z,472.00
2023-04-18T02:29:20.588Z,471.00
2023-04-18T02:30:20.582Z,468.00
2023-04-18T02:31:20.594Z,468.00
2023-04-18T02:32:20.602Z,467.00
2023-04-18T02:33:20.564Z,467.00
2023-04-18T02:34:20.560Z,467.00
2023-04-18T02:35:20.565Z,467.00
2023-04-18T02:36:20.556Z,467.00
2023-04-18T02:37:20.524Z,465.00
2023-04-18T02:38:20.529Z,464.00
2023-04-18T02:39:20.483Z,462.00
2023-04-18T02:40:20.472Z,463.00
2023-04-18T02:41:20.461Z,462.00
2023-04-18T02:42:20.451Z,462.00
2023-04-18T02:43:20.460Z,462.00
2023-04-18T02:44:20.392Z,465.00
2023-04-18T02:45:20.411Z,468.00
2023-04-18T02:46:20.471Z,468.00
2023-04-18T02:47:20.388Z,468.00
2023-04-18T02:48:20.384Z,467.00
2023-04-18T02:49:20.336Z,465.00
2023-04-18T02:50:20.340Z,466.00
2023-04-18T02:51:20.333Z,463.00
2023-04-18T02:52:20.311Z,462.00
2023-04-18T02:53:20.271Z,462.00
2023-04-18T02:54:20.290Z,462.00
2023-04-18T02:55:20.287Z,463.00
2023-04-18T02:56:20.262Z,463.00
2023-04-18T02:57:20.279Z,463.00
2023-04-18T02:58:20.238Z,464.00
2023-04-18T02:59:20.220Z,463.00
2023-04-18T03:00:20.227Z,463.00
2023-04-18T03:01:20.205Z,461.00
2023-04-18T03:02:20.235Z,463.00
2023-04-18T03:03:20.221Z,464.00
2023-04-18T03:04:20.202Z,465.00
2023-04-18T03:05:20.118Z,464.00
2023-04-18T03:06:20.122Z,462.00
2023-04-18T03:07:20.124Z,463.00
2023-04-18T03:08:20.099Z,463.00
2023-04-18T03:09:20.091Z,462.00
2023-04-18T03:10:20.083Z,463.00
2023-04-18T03:11:20.035Z,462.00
2023-04-18T03:12:20.037Z,463.00
2023-04-18T03:13:20.029Z,462.00
2023-04-18T03:14:20.023Z,466.00
2023-04-18T03:15:20.014Z,464.00
2023-04-18T03:16:20.058Z,464.00
2023-04-18T03:17:19.924Z,466.00
2023-04-18T03:18:19.958Z,463.00
2023-04-18T03:19:19.876Z,464.00
2023-04-18T03:20:19.892Z,463.00
2023-04-18T03:21:19.867Z,463.00
2023-04-18T03:22:19.861Z,464.00
2023-04-18T03:23:19.830Z,467.00
2023-04-18T03:24:19.826Z,467.00
2023-04-18T03:25:19.769Z,468.00
2023-04-18T03:26:19.771Z,468.00
2023-04-18T03:27:19.721Z,467.00
2023-04-18T03:28:19.694Z,467.00
2023-04-18T03:29:19.672Z,466.00
2023-04-18T03:30:19.713Z,466.00
2023-04-18T03:31:19.654Z,467.00
2023-04-18T03:32:19.663Z,469.00
2023-04-18T03:33:19.619Z,469.00
2023-04-18T03:34:19.574Z,469.00
2023-04-18T03:35:19.537Z,468.00
2023-04-18T03:36:19.521Z,469.00
2023-04-18T03:37:19.485Z,471.00
2023-04-18T03:38:19.494Z,472.00
2023-04-18T03:39:19.466Z,473.00
2023-04-18T03:40:19.417Z,474.00
2023-04-18T03:41:19.423Z,472.00
2023-04-18T03:42:19.360Z,470.00
2023-04-18T03:43:19.362Z,469.00
2023-04-18T03:44:19.338Z,472.00
2023-04-18T03:45:19.319Z,470.00
2023-04-18T03:46:19.341Z,471.00
2023-04-18T03:47:19.322Z,468.00
2023-04-18T03:48:19.255Z,467.00
2023-04-18T03:49:19.214Z,465.00
2023-04-18T03:50:19.200Z,464.00
2023-04-18T03:51:19.173Z,465.00
2023-04-18T03:52:19.162Z,466.00
2023-04-18T03:53:19.150Z,467.00
2023-04-18T03:54:19.129Z,466.00
2023-04-18T03:55:19.114Z,466.00
2023-04-18T03:56:19.148Z,466.00
2023-04-18T03:57:19.085Z,466.00
2023-04-18T03:58:19.051Z,467.00
2023-04-18T03:59:19.056Z,467.00
2023-04-18T04:00:19.050Z,467.00
2023-04-18T04:01:19.024Z,466.00
2023-04-18T04:02:19.220Z,464.00
2023-04-18T04:03:19.090Z,463.00
2023-04-18T04:04:19.154Z,464.00
2023-04-18T04:05:18.954Z,464.00
2023-04-18T04:06:18.875Z,464.00
2023-04-18T04:07:18.845Z,466.00
2023-04-18T04:08:18.878Z,466.00
2023-04-18T04:09:18.809Z,463.00
2023-04-18T04:10:18.758Z,464.00
2023-04-18T04:11:18.779Z,463.00
2023-04-18T04:12:18.748Z,465.00
2023-04-18T04:13:18.737Z,462.00
2023-04-18T04:14:18.755Z,459.00
2023-04-18T04:15:18.709Z,460.00
2023-04-18T04:16:18.746Z,459.00
2023-04-18T04:17:18.678Z,461.00
2023-04-18T04:18:18.682Z,463.00
2023-04-18T04:19:18.701Z,464.00
2023-04-18T04:20:18.672Z,466.00
2023-04-18T04:21:20.065Z,464.00
2023-04-18T04:22:18.709Z,465.00
2023-04-18T04:23:18.678Z,465.00
2023-04-18T04:24:18.692Z,465.00
2023-04-18T04:25:18.672Z,463.00
2023-04-18T04:26:18.634Z,462.00
2023-04-18T04:27:18.678Z,461.00
2023-04-18T04:28:18.666Z,460.00
2023-04-18T04:29:18.619Z,460.00
2023-04-18T04:30:18.642Z,461.00
2023-04-18T04:31:18.680Z,460.00
2023-04-18T04:32:18.663Z,461.00
2023-04-18T04:33:18.637Z,464.00
2023-04-18T04:34:18.652Z,464.00
2023-04-18T04:35:18.614Z,465.00
2023-04-18T04:36:19.073Z,464.00
2023-04-18T04:37:18.710Z,464.00
2023-04-18T04:38:18.621Z,463.00
2023-04-18T04:39:18.588Z,461.00
2023-04-18T04:40:18.592Z,460.00
2023-04-18T04:41:18.596Z,460.00
2023-04-18T04:42:18.609Z,460.00
2023-04-18T04:43:18.584Z,460.00
2023-04-18T04:44:18.612Z,459.00
2023-04-18T04:45:18.578Z,460.00
2023-04-18T04:46:18.675Z,458.00
2023-04-18T04:47:18.588Z,457.00
2023-04-18T04:48:18.587Z,459.00
2023-04-18T04:49:18.582Z,458.00
2023-04-18T04:50:18.603Z,461.00
2023-04-18T04:51:18.616Z,461.00
2023-04-18T04:52:18.601Z,459.00
2023-04-18T04:53:18.610Z,460.00
2023-04-18T04:54:18.631Z,457.00
2023-04-18T04:55:18.628Z,457.00
2023-04-18T04:56:18.655Z,458.00
2023-04-18T04:57:18.648Z,461.00
2023-04-18T04:58:18.654Z,459.00
2023-04-18T04:59:18.649Z,453.00
2023-04-18T05:00:18.658Z,452.00
2023-04-18T05:01:26.462Z,455.00
2023-04-18T05:02:18.732Z,456.00
2023-04-18T05:03:18.854Z,455.00
2023-04-18T05:04:18.904Z,456.00
2023-04-18T05:05:18.536Z,458.00
2023-04-18T05:06:18.508Z,457.00
2023-04-18T05:07:18.518Z,457.00
2023-04-18T05:08:18.430Z,456.00
2023-04-18T05:09:18.533Z,457.00
2023-04-18T05:10:18.331Z,460.00
2023-04-18T05:11:18.330Z,461.00
2023-04-18T05:12:18.267Z,459.00
2023-04-18T05:13:18.237Z,459.00
2023-04-18T05:14:18.147Z,459.00
2023-04-18T05:15:18.122Z,459.00
2023-04-18T05:16:18.098Z,461.00
2023-04-18T05:17:18.007Z,462.00
2023-04-18T05:18:17.985Z,461.00
2023-04-18T05:19:17.969Z,462.00
2023-04-18T05:20:17.896Z,462.00
2023-04-18T05:21:17.873Z,461.00
2023-04-18T05:22:17.839Z,461.00
2023-04-18T05:23:17.840Z,462.00
2023-04-18T05:24:17.853Z,462.00
2023-04-18T05:25:17.817Z,465.00
2023-04-18T05:26:17.800Z,465.00
2023-04-18T05:27:18.270Z,465.00
2023-04-18T05:28:17.878Z,466.00
2023-04-18T05:29:17.806Z,465.00
2023-04-18T05:30:17.829Z,466.00
2023-04-18T05:31:17.802Z,466.00
2023-04-18T05:32:17.799Z,467.00
2023-04-18T05:33:17.896Z,467.00
2023-04-18T05:34:17.775Z,468.00
2023-04-18T05:35:17.772Z,474.00
2023-04-18T05:36:17.771Z,490.00
2023-04-18T05:37:17.736Z,497.00
2023-04-18T05:38:17.914Z,499.00
2023-04-18T05:39:17.749Z,507.00
2023-04-18T05:40:17.749Z,520.00
2023-04-18T05:41:17.760Z,531.00
2023-04-18T05:42:17.710Z,541.00
2023-04-18T05:43:17.918Z,547.00
2023-04-18T05:44:17.948Z,549.00
2023-04-18T05:45:17.631Z,555.00
2023-04-18T05:46:24.625Z,568.00
2023-04-18T05:47:17.604Z,584.00
2023-04-18T05:48:17.538Z,597.00
2023-04-18T05:49:17.521Z,573.00
2023-04-18T05:50:17.488Z,566.00
2023-04-18T05:51:17.446Z,571.00
2023-04-18T05:52:17.402Z,655.00
2023-04-18T05:53:17.450Z,632.00
2023-04-18T05:54:17.336Z,590.00
2023-04-18T05:55:17.273Z,651.00
2023-04-18T05:56:17.265Z,674.00
2023-04-18T05:57:17.283Z,636.00
2023-04-18T05:58:17.168Z,661.00
2023-04-18T05:59:17.099Z,672.00
2023-04-18T06:00:17.106Z,674.00
2023-04-18T06:01:17.058Z,676.00
2023-04-18T06:02:17.084Z,679.00
2023-04-18T06:03:17.217Z,677.00
2023-04-18T06:04:17.318Z,674.00
2023-04-18T06:05:17.062Z,673.00
2023-04-18T06:06:16.808Z,669.00
2023-04-18T06:07:16.752Z,667.00
2023-04-18T06:08:16.709Z,664.00
2023-04-18T06:09:16.670Z,660.00
2023-04-18T06:10:16.645Z,658.00
2023-04-18T06:11:16.564Z,661.00
2023-04-18T06:12:16.555Z,666.00
2023-04-18T06:13:16.513Z,663.00
2023-04-18T06:14:16.609Z,656.00
2023-04-18T06:15:16.434Z,650.00
2023-04-18T06:16:16.429Z,641.00
2023-04-18T06:17:16.345Z,643.00
2023-04-18T06:18:16.283Z,664.00
2023-04-18T06:19:16.461Z,664.00
2023-04-18T06:20:16.225Z,651.00
2023-04-18T06:21:16.137Z,650.00
2023-04-18T06:22:16.117Z,643.00
2023-04-18T06:23:16.083Z,637.00
2023-04-18T06:24:16.244Z,640.00
2023-04-18T06:25:16.010Z,638.00
2023-04-18T06:26:15.932Z,644.00
2023-04-18T06:27:28.293Z,656.00
2023-04-18T06:28:16.837Z,672.00
2023-04-18T06:29:15.774Z,675.00
2023-04-18T06:30:15.744Z,677.00
2023-04-18T06:31:15.682Z,675.00
2023-04-18T06:32:15.607Z,667.00
2023-04-18T06:33:15.592Z,665.00
2023-04-18T06:34:15.786Z,667.00
2023-04-18T06:35:15.547Z,669.00
2023-04-18T06:36:15.450Z,666.00
2023-04-18T06:37:15.387Z,660.00
2023-04-18T06:38:15.376Z,652.00
2023-04-18T06:39:15.478Z,659.00
2023-04-18T06:40:15.278Z,664.00
2023-04-18T06:41:15.284Z,749.00
2023-04-18T06:42:15.212Z,736.00
2023-04-18T06:43:15.182Z,733.00
2023-04-18T06:44:15.161Z,831.00
2023-04-18T06:45:15.424Z,833.00
2023-04-18T06:46:15.091Z,821.00
2023-04-18T06:47:15.435Z,810.00
2023-04-18T06:48:14.949Z,803.00
2023-04-18T06:49:14.890Z,799.00
2023-04-18T06:50:14.908Z,794.00
2023-04-18T06:51:14.821Z,789.00
2023-04-18T06:52:14.781Z,783.00
2023-04-18T06:53:14.774Z,775.00
2023-04-18T06:54:14.862Z,763.00
2023-04-18T06:55:14.757Z,761.00
2023-04-18T06:56:14.745Z,760.00
2023-04-18T06:57:14.685Z,751.00
2023-04-18T06:58:14.674Z,753.00
2023-04-18T06:59:15.057Z,754.00
2023-04-18T07:00:14.606Z,763.00
2023-04-18T07:01:14.676Z,818.00
2023-04-18T07:02:14.618Z,815.00
2023-04-18T07:03:14.664Z,766.00
2023-04-18T07:04:14.726Z,806.00
2023-04-18T07:05:14.546Z,811.00
2023-04-18T07:06:14.524Z,777.00
2023-04-18T07:07:14.562Z,767.00
2023-04-18T07:08:14.464Z,779.00
2023-04-18T07:09:14.999Z,783.00
2023-04-18T07:10:14.472Z,799.00
2023-04-18T07:11:14.417Z,811.00
2023-04-18T07:12:14.426Z,817.00
2023-04-18T07:13:14.415Z,812.00
2023-04-18T07:14:14.807Z,771.00
2023-04-18T07:15:14.391Z,795.00
2023-04-18T07:16:14.445Z,841.00
2023-04-18T07:17:14.397Z,829.00
2023-04-18T07:18:18.024Z,839.00
2023-04-18T07:19:15.245Z,884.00
2023-04-18T07:20:14.394Z,897.00
2023-04-18T07:21:14.175Z,908.00
2023-04-18T07:22:14.105Z,914.00
2023-04-18T07:23:14.053Z,924.00
2023-04-18T07:24:14.407Z,921.00
2023-04-18T07:25:14.013Z,913.00
2023-04-18T07:26:14.015Z,902.00
2023-04-18T07:27:13.913Z,858.00
2023-04-18T07:28:13.864Z,863.00
2023-04-18T07:29:13.812Z,628.00
2023-04-18T07:30:13.722Z,599.00
2023-04-18T07:31:13.793Z,545.00
2023-04-18T07:32:13.671Z,538.00
2023-04-18T07:33:13.641Z,514.00
2023-04-18T07:34:14.197Z,527.00
2023-04-18T07:35:13.643Z,513.00
2023-04-18T07:36:13.584Z,511.00
2023-04-18T07:37:15.052Z,504.00
2023-04-18T07:38:13.606Z,504.00
2023-04-18T07:39:14.003Z,507.00
2023-04-18T07:40:13.687Z,508.00
2023-04-18T07:41:13.797Z,518.00
2023-04-18T07:42:13.740Z,527.00
2023-04-18T07:43:13.864Z,524.00
2023-04-18T07:44:14.245Z,530.00
2023-04-18T07:45:13.931Z,535.00
2023-04-18T07:46:14.028Z,541.00
2023-04-18T07:47:14.046Z,537.00
2023-04-18T07:48:14.121Z,519.00
2023-04-18T07:49:14.663Z,496.00
2023-04-18T07:50:14.145Z,491.00
2023-04-18T07:51:14.213Z,498.00
2023-04-18T07:52:14.216Z,513.00
2023-04-18T07:53:14.294Z,586.00
2023-04-18T07:54:14.567Z,612.00
2023-04-18T07:55:14.345Z,627.00
2023-04-18T07:56:14.487Z,698.00
2023-04-18T07:57:14.400Z,700.00
2023-04-18T07:58:14.393Z,706.00
2023-04-18T07:59:14.599Z,763.00
2023-04-18T08:00:14.439Z,773.00
2023-04-18T08:01:14.478Z,776.00
2023-04-18T08:02:14.525Z,777.00
2023-04-18T08:03:14.644Z,782.00
2023-04-18T08:04:14.561Z,797.00
2023-04-18T08:05:14.594Z,798.00
2023-04-18T08:06:14.514Z,808.00
2023-04-18T08:07:14.519Z,822.00
2023-04-18T08:08:14.558Z,848.00
2023-04-18T08:09:14.908Z,866.00
2023-04-18T08:10:14.998Z,880.00
2023-04-18T08:11:14.525Z,891.00
2023-04-18T08:12:14.492Z,903.00
2023-04-18T08:13:14.482Z,973.00
2023-04-18T08:14:14.503Z,990.00
2023-04-18T08:15:14.485Z,995.00
2023-04-18T08:16:17.010Z,1006.00
2023-04-18T08:17:14.416Z,1027.00
2023-04-18T08:18:14.362Z,1082.00
2023-04-18T08:19:14.513Z,1112.00
2023-04-18T08:20:14.518Z,1108.00
2023-04-18T08:21:14.239Z,1106.00
2023-04-18T08:22:14.211Z,1113.00
2023-04-18T08:23:14.148Z,1131.00
2023-04-18T08:24:14.129Z,1153.00
2023-04-18T08:25:14.055Z,1173.00
2023-04-18T08:26:14.009Z,1196.00
2023-04-18T08:27:14.065Z,1212.00
2023-04-18T08:28:13.949Z,1233.00
2023-04-18T08:29:14.071Z,1240.00
2023-04-18T08:30:13.854Z,1265.00
2023-04-18T08:31:13.833Z,1303.00
2023-04-18T08:32:14.528Z,1300.00
2023-04-18T08:33:13.744Z,1323.00
2023-04-18T08:34:13.669Z,1366.00
2023-04-18T08:35:13.627Z,1360.00
2023-04-18T08:36:13.571Z,1334.00
2023-04-18T08:37:13.525Z,1312.00
2023-04-18T08:38:13.547Z,1245.00
2023-04-18T08:39:13.742Z,1236.00
2023-04-18T08:40:13.530Z,1218.00
2023-04-18T08:41:13.354Z,1060.00
2023-04-18T08:42:13.364Z,1050.00
2023-04-18T08:43:13.267Z,1100.00
2023-04-18T08:44:13.493Z,1110.00
2023-04-18T08:45:13.479Z,1101.00
2023-04-18T08:46:13.179Z,1028.00
2023-04-18T08:47:13.228Z,977.00
2023-04-18T08:48:13.147Z,962.00
2023-04-18T08:49:13.424Z,754.00
2023-04-18T08:50:13.567Z,583.00
2023-04-18T08:51:12.999Z,571.00
2023-04-18T08:52:12.941Z,574.00
2023-04-18T08:53:12.919Z,589.00
2023-04-18T08:54:12.878Z,623.00
2023-04-18T08:55:12.831Z,628.00
2023-04-18T08:56:12.793Z,640.00
2023-04-18T08:57:12.778Z,653.00
2023-04-18T08:58:12.770Z,660.00
2023-04-18T08:59:13.004Z,651.00
2023-04-18T09:00:13.026Z,647.00
2023-04-18T09:01:12.700Z,634.00
2023-04-18T09:02:12.708Z,622.00
2023-04-18T09:03:12.623Z,620.00
2023-04-18T09:04:12.579Z,608.00
2023-04-18T09:05:12.517Z,613.00
2023-04-18T09:06:12.550Z,613.00
2023-04-18T09:07:12.474Z,609.00
2023-04-18T09:08:12.441Z,602.00
2023-04-18T09:09:12.643Z,599.00
2023-04-18T09:10:12.668Z,595.00
2023-04-18T09:11:12.474Z,593.00
2023-04-18T09:12:12.495Z,594.00
2023-04-18T09:13:12.506Z,596.00
2023-04-18T09:14:12.712Z,600.00
2023-04-18T09:15:12.526Z,606.00
2023-04-18T09:16:12.610Z,619.00
2023-04-18T09:17:12.578Z,631.00
2023-04-18T09:18:12.631Z,633.00
2023-04-18T09:19:13.146Z,637.00
2023-04-18T09:20:12.523Z,637.00
2023-04-18T09:21:12.557Z,637.00
2023-04-18T09:22:12.540Z,641.00
2023-04-18T09:23:12.516Z,648.00
2023-04-18T09:24:12.779Z,652.00
2023-04-18T09:25:12.551Z,655.00
2023-04-18T09:26:12.503Z,660.00
2023-04-18T09:27:12.452Z,672.00
2023-04-18T09:28:12.449Z,681.00
2023-04-18T09:29:12.537Z,688.00
2023-04-18T09:30:12.468Z,699.00
2023-04-18T09:31:12.454Z,712.00
2023-04-18T09:32:12.377Z,716.00
2023-04-18T09:33:12.386Z,721.00
2023-04-18T09:34:12.533Z,724.00
2023-04-18T09:35:12.557Z,725.00
2023-04-18T09:36:12.410Z,730.00
2023-04-18T09:37:12.395Z,683.00
2023-04-18T09:38:12.382Z,670.00
2023-04-18T09:39:12.502Z,671.00
2023-04-18T09:40:12.330Z,671.00
2023-04-18T09:41:12.415Z,673.00
2023-04-18T09:42:12.311Z,696.00
2023-04-18T09:43:12.325Z,734.00
2023-04-18T09:44:15.005Z,715.00
2023-04-18T09:45:12.522Z,649.00
2023-04-18T09:46:12.190Z,641.00
2023-04-18T09:47:12.134Z,594.00
2023-04-18T09:48:12.145Z,590.00
2023-04-18T09:49:12.313Z,638.00
2023-04-18T09:50:12.577Z,649.00
2023-04-18T09:51:12.054Z,665.00
2023-04-18T09:52:11.995Z,685.00
2023-04-18T09:53:11.959Z,746.00
2023-04-18T09:54:12.256Z,773.00
2023-04-18T09:55:12.018Z,779.00
2023-04-18T09:56:11.835Z,782.00
2023-04-18T09:57:11.792Z,782.00
2023-04-18T09:58:11.757Z,786.00
2023-04-18T09:59:11.816Z,794.00
2023-04-18T10:00:11.664Z,827.00
2023-04-18T10:01:11.627Z,829.00
2023-04-18T10:02:11.623Z,828.00
2023-04-18T10:03:11.602Z,833.00
2023-04-18T10:04:11.631Z,839.00
2023-04-18T10:05:11.533Z,841.00
2023-04-18T10:06:11.453Z,843.00
2023-04-18T10:07:11.358Z,849.00
2023-04-18T10:08:11.349Z,854.00
2023-04-18T10:09:11.408Z,861.00
2023-04-18T10:10:11.264Z,876.00
2023-04-18T10:11:11.189Z,882.00
2023-04-18T10:12:13.070Z,886.00
2023-04-18T10:13:11.105Z,886.00
2023-04-18T10:14:11.010Z,887.00
2023-04-18T10:15:10.985Z,898.00
2023-04-18T10:16:10.928Z,902.00
2023-04-18T10:17:10.863Z,904.00
2023-04-18T10:18:10.875Z,908.00
2023-04-18T10:19:10.849Z,909.00
2023-04-18T10:20:10.716Z,913.00
2023-04-18T10:21:10.640Z,917.00
2023-04-18T10:22:10.627Z,925.00
2023-04-18T10:23:10.636Z,928.00
2023-04-18T10:24:10.639Z,933.00
2023-04-18T10:25:10.643Z,938.00
2023-04-18T10:26:10.663Z,940.00
2023-04-18T10:27:10.629Z,940.00
2023-04-18T10:28:10.683Z,942.00
2023-04-18T10:29:10.683Z,944.00
2023-04-18T10:30:10.680Z,947.00
2023-04-18T10:31:11.073Z,951.00
2023-04-18T10:32:10.654Z,960.00
2023-04-18T10:33:18.402Z,973.00
2023-04-18T10:34:11.584Z,977.00
2023-04-18T10:35:10.518Z,982.00
2023-04-18T10:36:10.457Z,990.00
2023-04-18T10:37:10.412Z,998.00
2023-04-18T10:38:10.382Z,1075.00
2023-04-18T10:39:10.363Z,1050.00
2023-04-18T10:40:10.275Z,1118.00
2023-04-18T10:41:10.547Z,1188.00
2023-04-18T10:42:10.158Z,1088.00
2023-04-18T10:43:10.101Z,1060.00
2023-04-18T10:44:10.050Z,1054.00
2023-04-18T10:45:09.996Z,1061.00
2023-04-18T10:46:17.344Z,1102.00
2023-04-18T10:47:10.933Z,1111.00
2023-04-18T10:48:09.961Z,999.00
2023-04-18T10:49:09.785Z,766.00
2023-04-18T10:50:09.728Z,709.00
2023-04-18T10:51:09.738Z,591.00
2023-04-18T10:52:10.893Z,581.00
2023-04-18T10:53:09.857Z,579.00
2023-04-18T10:54:09.848Z,547.00
2023-04-18T10:55:09.828Z,612.00
2023-04-18T10:56:10.043Z,635.00
2023-04-18T10:57:09.760Z,636.00
2023-04-18T10:58:09.777Z,650.00
2023-04-18T10:59:09.740Z,658.00
2023-04-18T11:00:09.771Z,665.00
2023-04-18T11:01:09.814Z,672.00
2023-04-18T11:02:09.734Z,677.00
2023-04-18T11:03:09.886Z,686.00
2023-04-18T11:04:09.885Z,692.00
2023-04-18T11:05:09.793Z,699.00
2023-04-18T11:06:09.778Z,710.00
2023-04-18T11:07:09.762Z,726.00
2023-04-18T11:08:09.733Z,741.00
2023-04-18T11:09:09.786Z,748.00
2023-04-18T11:10:09.949Z,747.00
2023-04-18T11:11:10.038Z,756.00
2023-04-18T11:12:09.737Z,759.00
2023-04-18T11:13:09.726Z,765.00
2023-04-18T11:14:09.702Z,771.00
2023-04-18T11:15:10.710Z,778.00
2023-04-18T11:16:09.642Z,780.00
2023-04-18T11:17:09.592Z,782.00
2023-04-18T11:18:09.510Z,783.00
2023-04-18T11:19:09.388Z,782.00
2023-04-18T11:20:09.381Z,780.00
2023-04-18T11:21:09.279Z,778.00
2023-04-18T11:22:09.236Z,773.00
2023-04-18T11:23:09.199Z,766.00
2023-04-18T11:24:09.109Z,758.00
2023-04-18T11:25:09.109Z,751.00
2023-04-18T11:26:09.023Z,746.00
2023-04-18T11:27:08.935Z,746.00
2023-04-18T11:28:09.575Z,747.00
2023-04-18T11:29:08.839Z,749.00
2023-04-18T11:30:08.839Z,747.00
2023-04-18T11:31:09.554Z,745.00
2023-04-18T11:32:08.760Z,748.00
2023-04-18T11:33:08.960Z,754.00
2023-04-18T11:34:08.640Z,763.00
2023-04-18T11:35:08.522Z,772.00
2023-04-18T11:36:08.576Z,796.00
2023-04-18T11:37:08.467Z,807.00
2023-04-18T11:38:08.430Z,815.00
2023-04-18T11:39:08.410Z,814.00
2023-04-18T11:40:08.397Z,812.00
2023-04-18T11:41:08.363Z,805.00
2023-04-18T11:42:08.320Z,801.00
2023-04-18T11:43:08.310Z,796.00
2023-04-18T11:44:08.282Z,796.00
2023-04-18T11:45:08.260Z,796.00
2023-04-18T11:46:08.258Z,791.00
2023-04-18T11:47:08.442Z,783.00
2023-04-18T11:48:08.245Z,778.00
2023-04-18T11:49:08.150Z,778.00
2023-04-18T11:50:08.191Z,776.00
2023-04-18T11:51:08.125Z,774.00
2023-04-18T11:52:08.125Z,772.00
2023-04-18T11:53:08.112Z,773.00
2023-04-18T11:54:08.072Z,776.00
2023-04-18T11:55:08.075Z,775.00
2023-04-18T11:56:08.103Z,771.00
2023-04-18T11:57:08.265Z,764.00
2023-04-18T11:58:08.002Z,757.00
2023-04-18T11:59:08.019Z,753.00
2023-04-18T12:00:07.963Z,748.00
2023-04-18T12:01:08.091Z,745.00
2023-04-18T12:02:16.012Z,741.00
2023-04-18T12:03:09.998Z,739.00
2023-04-18T12:04:08.167Z,740.00
2023-04-18T12:05:08.186Z,737.00
2023-04-18T12:06:07.814Z,734.00
2023-04-18T12:07:07.672Z,729.00
2023-04-18T12:08:07.630Z,718.00
2023-04-18T12:09:07.583Z,712.00
2023-04-18T12:10:07.520Z,710.00
2023-04-18T12:11:07.484Z,709.00
2023-04-18T12:12:07.406Z,709.00
2023-04-18T12:13:07.353Z,712.00
2023-04-18T12:14:07.327Z,711.00
2023-04-18T12:15:07.326Z,707.00
2023-04-18T12:16:07.301Z,706.00
2023-04-18T12:17:07.228Z,703.00
2023-04-18T12:18:07.218Z,700.00
2023-04-18T12:19:07.128Z,699.00
2023-04-18T12:20:07.092Z,695.00
2023-04-18T12:21:07.092Z,693.00
2023-04-18T12:22:07.008Z,690.00
2023-04-18T12:23:06.960Z,688.00
2023-04-18T12:24:06.927Z,686.00
2023-04-18T12:25:06.877Z,684.00
2023-04-18T12:26:06.831Z,682.00
2023-04-18T12:27:06.768Z,679.00